aviador You're here:

KPSF Decoded Metar

PITTSFIELD in MA, USA
Report Time2018-02-22 14:54:00
UTC Time2018-02-22 15:02:06
Flight Rules vfr VFR
Wind240° at 03 kt
W.Decomp.*RWY 26: 3.0 kt HW 0.3 kt LCW
RWY 32: 1.3 kt HW 2.7 kt LCW
W.Rank240° ranks 6
Current wind is below 240° avg. (6.0)
Visibility9999 m
Phenomena:N/A
Clouds:Scattered 050 Hf
Overcast 060 Hf
Expected CloudBase > 2,400 ft AGL from Temp-Dew spread
Ceiling6,000 ft
Temp03°C (ISA -10)
Dew Point-3°C (65% RH)
AAT-0.5°C
QNH1037 hPa
Density Alt-745 ft
Elevation1,165 ft
Report Wrong Elevation
Raw Report
KPSF 221454Z AUTO 24003KT 10SM SCT050 OVC060 03/M03 A3062 RMK AO2
UPE25RAB09E23 SLP374 P0000 60000 T00281028 53025=

Extra information for KPSF:More info

Metar Taf Metar & Taf Last 4 Metars F.Rules Stats Wind Profile Meteogram Temp Stats Airport Information Weather charts Add Link Nearby VenuesMetar ALERT Operation Metar Decoded Social comments

AIRNAV info for KPSF